Wilpen, Minnesota
Current Conditions -  °F | °C
As of 2:06 AM on Friday 31 Oct 2014 (Local Time) from KHIB Reporting Station
Scattered Clouds Scattered Clouds  
Wind Chill: 14°   Ceiling: Unl
Heat Index: 27°   Visibility: 10mi
Dew Point: 16°   Wind: 17mph
Humidity: 63%   Direction: 360°N
Pressure: 30.44"   Gusts: NA
Location:  47.4158°N, 93.0053°W
Report Text: KHIB 310706Z AUTO 36015KT 10SM SCT029 M03/M09 A3044 RMK AO2 T10281089
Loading
Personal Weather Stations






























Interactive Weather Map
Tropical Storm Tracking
New forecast layout! Learn more

10-Day Weather Forecast

Advertisements
Track Severe Weather on mobile